Time;durP1;ratioP1;P1;durP2;ratioP2;P2;SDS_P1;SDS_P2;PMS_P1;PMS_P2;Temp;Humidity;BMP_temperature;BMP_pressure;BME280_temperature;BME280_humidity;BME280_pressure;Samples;Min_cycle;Max_cycle;Signal;HPM_P1;HPM_P2
2022/04/29 00:01:25;;;;;;;1.60;1.17;;;12.90;99.90;;;;;;4897636;29;20110;-74
2022/04/29 00:03:53;;;;;;;0.80;0.73;;;12.80;99.90;;;;;;4897563;29;20399;-74
2022/04/29 00:06:22;;;;;;;2.72;0.85;;;12.80;99.90;;;;;;4897377;29;20024;-74
2022/04/29 00:08:47;;;;;;;5.55;2.70;;;12.80;99.90;;;;;;4897434;29;20029;-74
2022/04/29 00:11:14;;;;;;;5.90;1.88;;;12.80;99.90;;;;;;4896871;29;20028;-75
2022/04/29 00:13:39;;;;;;;8.27;1.13;;;12.80;99.90;;;;;;4896910;29;20055;-74
2022/04/29 00:16:05;;;;;;;5.68;1.27;;;12.70;99.90;;;;;;4907487;29;20020;-74
2022/04/29 00:18:32;;;;;;;1.00;1.00;;;12.70;99.90;;;;;;4916098;29;20033;-74
2022/04/29 00:20:58;;;;;;;1.55;0.57;;;12.80;99.90;;;;;;4919042;29;20024;-74
2022/04/29 00:23:23;;;;;;;2.95;1.45;;;12.70;99.90;;;;;;4920189;29;20111;-74
2022/04/29 00:25:49;;;;;;;3.78;1.58;;;12.60;99.90;;;;;;4920077;29;20484;-73
2022/04/29 00:28:15;;;;;;;10.32;1.42;;;12.60;99.90;;;;;;4920032;29;20032;-74
2022/04/29 00:30:41;;;;;;;1.85;0.98;;;12.60;99.90;;;;;;4919321;29;20099;-74
2022/04/29 00:33:07;;;;;;;0.20;0.20;;;12.60;99.90;;;;;;4919607;29;20094;-74
2022/04/29 00:35:33;;;;;;;1.00;1.00;;;12.50;99.90;;;;;;4918153;29;20028;-74
2022/04/29 00:37:58;;;;;;;0.60;0.40;;;12.60;99.90;;;;;;4927583;29;20041;-74
2022/04/29 00:40:29;;;;;;;2.95;1.02;;;12.50;99.90;;;;;;4937530;29;20028;-74
2022/04/29 00:42:56;;;;;;;0.65;0.57;;;12.60;99.90;;;;;;4938584;29;20032;-74
2022/04/29 00:45:23;;;;;;;1.73;1.38;;;12.50;99.90;;;;;;4938592;29;20030;-74
2022/04/29 00:47:50;;;;;;;5.10;2.95;;;12.50;99.90;;;;;;4938646;29;20071;-74
2022/04/29 00:50:19;;;;;;;7.03;1.55;;;12.50;99.90;;;;;;4938278;29;20451;-74
2022/04/29 00:52:55;;;;;;;3.67;1.45;;;12.50;99.90;;;;;;4938471;29;20399;-74
2022/04/29 00:55:22;;;;;;;1.35;0.82;;;12.40;99.90;;;;;;4924020;29;20027;-74
2022/04/29 00:57:52;;;;;;;0.45;0.45;;;12.40;99.90;;;;;;4919501;29;20092;-74
2022/04/29 01:00:19;;;;;;;5.53;1.30;;;12.50;99.90;;;;;;4919407;29;20055;-73
2022/04/29 01:02:51;;;;;;;1.13;0.93;;;12.50;99.90;;;;;;4918964;29;20070;-74
2022/04/29 01:05:19;;;;;;;3.67;0.98;;;12.50;99.90;;;;;;4918990;29;20020;-74
2022/04/29 01:07:46;;;;;;;9.65;1.08;;;12.50;99.90;;;;;;4919239;29;20392;-74
2022/04/29 01:10:13;;;;;;;0.75;0.70;;;12.50;99.90;;;;;;4919361;29;20531;-73
2022/04/29 01:12:41;;;;;;;1.90;1.52;;;12.50;99.90;;;;;;4919110;29;20029;-73
2022/04/29 01:15:10;;;;;;;1.92;1.67;;;12.40;99.90;;;;;;4917455;29;20086;-73
2022/04/29 01:17:37;;;;;;;1.63;1.20;;;12.30;99.90;;;;;;4916824;29;20440;-74
2022/04/29 01:20:05;;;;;;;0.20;0.20;;;12.20;99.90;;;;;;4918525;29;20043;-74
2022/04/29 01:22:31;;;;;;;3.03;1.63;;;12.20;99.90;;;;;;4919461;29;20513;-74
2022/04/29 01:24:57;;;;;;;0.65;0.38;;;12.10;99.90;;;;;;4916767;29;20028;-74
2022/04/29 01:27:23;;;;;;;1.02;0.90;;;12.10;99.90;;;;;;4918804;29;20389;-74
2022/04/29 01:29:57;;;;;;;2.38;1.27;;;12.10;99.90;;;;;;4918701;29;20032;-74
2022/04/29 01:32:24;;;;;;;1.48;0.82;;;12.10;99.90;;;;;;4918649;29;20035;-74
2022/04/29 01:34:49;;;;;;;0.22;0.22;;;12.10;99.90;;;;;;4918454;29;20036;-74
2022/04/29 01:37:16;;;;;;;5.53;0.82;;;12.10;99.90;;;;;;4920700;29;20107;-74
2022/04/29 01:39:41;;;;;;;1.00;0.98;;;12.10;99.90;;;;;;4937763;29;20034;-73
2022/04/29 01:42:07;;;;;;;1.80;0.95;;;12.00;99.90;;;;;;4937648;29;20032;-74
2022/04/29 01:44:33;;;;;;;1.45;0.63;;;12.00;99.90;;;;;;4937498;29;20087;-74
2022/04/29 01:46:58;;;;;;;1.65;1.10;;;12.00;99.90;;;;;;4937354;29;20043;-74
2022/04/29 01:49:24;;;;;;;4.05;0.95;;;12.00;99.90;;;;;;4937053;29;20027;-74
2022/04/29 01:51:49;;;;;;;3.17;0.30;;;12.00;99.90;;;;;;4937066;29;20035;-74
2022/04/29 01:54:15;;;;;;;1.20;1.05;;;12.00;99.90;;;;;;4925798;29;20040;-73
2022/04/29 01:56:41;;;;;;;1.77;0.80;;;12.00;99.90;;;;;;4899036;29;20033;-74
2022/04/29 01:59:07;;;;;;;0.47;0.47;;;12.00;99.90;;;;;;4898926;29;20032;-74
2022/04/29 02:01:34;;;;;;;5.47;1.65;;;12.00;99.90;;;;;;4899329;29;20029;-74
2022/04/29 02:04:01;;;;;;;1.75;1.05;;;12.00;99.90;;;;;;4898891;29;20032;-74
2022/04/29 02:06:27;;;;;;;1.00;0.43;;;12.00;99.90;;;;;;4899583;29;20017;-74
2022/04/29 02:08:53;;;;;;;0.93;0.93;;;12.00;99.90;;;;;;4899511;29;20032;-73
2022/04/29 02:11:20;;;;;;;0.90;0.45;;;12.00;99.90;;;;;;4899312;29;20432;-74
2022/04/29 02:13:47;;;;;;;0.52;0.40;;;12.00;99.90;;;;;;4899177;29;20437;-74
2022/04/29 02:16:13;;;;;;;2.20;1.05;;;12.00;99.90;;;;;;4909132;29;20051;-73
2022/04/29 02:18:40;;;;;;;4.13;1.55;;;12.00;99.90;;;;;;4917458;29;20051;-74
2022/04/29 02:21:05;;;;;;;3.92;0.90;;;11.90;99.90;;;;;;4916964;29;20032;-73
2022/04/29 02:23:31;;;;;;;0.20;0.20;;;11.90;99.90;;;;;;4917847;29;20039;-75
2022/04/29 02:26:00;;;;;;;0.95;0.45;;;11.90;99.90;;;;;;4917553;29;20111;-75
2022/04/29 02:28:27;;;;;;;1.73;0.65;;;11.90;99.90;;;;;;4917556;29;20491;-75
2022/04/29 02:30:56;;;;;;;0.85;0.75;;;11.90;99.90;;;;;;4917319;29;20028;-74
2022/04/29 02:33:23;;;;;;;0.60;0.60;;;11.90;99.90;;;;;;4920289;29;20075;-73
2022/04/29 02:35:49;;;;;;;1.50;0.70;;;11.90;99.90;;;;;;4917944;29;20032;-74
2022/04/29 02:38:15;;;;;;;0.30;0.30;;;11.90;99.90;;;;;;4927342;29;20023;-74
2022/04/29 02:40:40;;;;;;;4.78;0.98;;;11.90;99.90;;;;;;4936543;29;20030;-74
2022/04/29 02:43:06;;;;;;;0.75;0.57;;;11.90;99.90;;;;;;4934730;29;20035;-74
2022/04/29 02:45:32;;;;;;;0.28;0.28;;;11.80;99.90;;;;;;4936410;29;20024;-73
2022/04/29 02:47:58;;;;;;;0.88;0.73;;;11.80;99.90;;;;;;4936203;29;20602;-74
2022/04/29 02:50:24;;;;;;;0.47;0.47;;;11.80;99.90;;;;;;4936280;29;20391;-74
2022/04/29 02:52:51;;;;;;;0.57;0.57;;;11.80;99.90;;;;;;4936147;29;20480;-74
2022/04/29 02:55:17;;;;;;;0.70;0.32;;;11.70;99.90;;;;;;4909098;29;20049;-74
2022/04/29 02:57:42;;;;;;;0.30;0.30;;;11.70;99.90;;;;;;4898162;29;20103;-74
2022/04/29 03:00:09;;;;;;;0.50;0.47;;;11.70;99.90;;;;;;4896952;29;20460;-74
2022/04/29 03:02:34;;;;;;;0.10;0.10;;;11.70;99.90;;;;;;4898664;29;20523;-73
2022/04/29 03:05:00;;;;;;;1.13;0.90;;;11.70;99.90;;;;;;4900426;29;20057;-75
2022/04/29 03:07:26;;;;;;;0.10;0.10;;;11.70;99.90;;;;;;4899393;29;20079;-74
2022/04/29 03:09:51;;;;;;;0.95;0.40;;;11.70;99.90;;;;;;4897710;29;20480;-73
2022/04/29 03:12:17;;;;;;;0.30;0.30;;;11.70;99.90;;;;;;4898097;29;20064;-73
2022/04/29 03:14:43;;;;;;;7.43;1.17;;;11.70;99.90;;;;;;4898040;29;20462;-74
2022/04/29 03:19:53;;;;;;;0.60;0.50;;;11.60;99.90;;;;;;4898100;29;20116;-74
2022/04/29 03:22:19;;;;;;;1.45;0.30;;;11.50;99.90;;;;;;4898486;29;20464;-74
2022/04/29 03:24:44;;;;;;;1.65;0.28;;;11.40;99.90;;;;;;4897851;29;20071;-74
2022/04/29 03:27:10;;;;;;;0.60;0.60;;;11.40;99.90;;;;;;4896595;29;20079;-74
2022/04/29 03:29:36;;;;;;;0.90;0.20;;;11.50;99.90;;;;;;4899631;29;20024;-74
2022/04/29 03:32:02;;;;;;;1.02;1.00;;;11.50;99.90;;;;;;4897983;29;20031;-74
2022/04/29 03:34:28;;;;;;;1.23;0.38;;;11.60;99.90;;;;;;4897866;29;20107;-74
2022/04/29 03:36:54;;;;;;;3.17;0.93;;;11.60;99.90;;;;;;4897976;29;20079;-74
2022/04/29 03:39:19;;;;;;;0.55;0.32;;;11.60;99.90;;;;;;4934411;29;20028;-74
2022/04/29 03:41:45;;;;;;;5.28;0.40;;;11.60;99.90;;;;;;4936024;29;20394;-74
2022/04/29 03:44:11;;;;;;;0.50;0.50;;;11.60;99.90;;;;;;4935043;29;20496;-74
2022/04/29 03:46:37;;;;;;;1.33;0.68;;;11.60;99.90;;;;;;4934648;29;20035;-74
2022/04/29 03:51:46;;;;;;;1.27;0.30;;;11.70;99.90;;;;;;4942084;29;20034;-74
2022/04/29 03:54:12;;;;;;;3.20;1.02;;;11.60;99.90;;;;;;4925992;29;20408;-75
2022/04/29 03:56:37;;;;;;;2.55;0.93;;;11.60;99.90;;;;;;4901489;29;20055;-74
2022/04/29 03:59:03;;;;;;;0.38;0.22;;;11.60;99.90;;;;;;4901367;29;20040;-74
2022/04/29 04:01:29;;;;;;;0.38;0.38;;;11.60;99.90;;;;;;4901110;29;20456;-74
2022/04/29 04:03:55;;;;;;;2.00;0.82;;;11.60;99.90;;;;;;4900057;29;20063;-74
2022/04/29 04:09:05;;;;;;;0.65;0.60;;;11.60;99.90;;;;;;4901545;29;20031;-74
2022/04/29 04:11:31;;;;;;;0.93;0.80;;;11.60;99.90;;;;;;4901202;29;20104;-74
2022/04/29 04:13:57;;;;;;;0.13;0.13;;;11.50;99.90;;;;;;4900575;29;20029;-74
2022/04/29 04:16:24;;;;;;;2.33;1.33;;;11.50;99.90;;;;;;4913305;29;20559;-74
2022/04/29 04:18:50;;;;;;;0.90;0.45;;;11.50;99.90;;;;;;4918824;29;20088;-74
2022/04/29 04:21:16;;;;;;;0.03;0.03;;;11.50;99.90;;;;;;4919731;29;20487;-74
2022/04/29 04:23:42;;;;;;;4.40;1.38;;;11.40;99.90;;;;;;4920045;29;20020;-74
2022/04/29 04:26:07;;;;;;;0.75;0.70;;;11.40;99.90;;;;;;4925813;29;20063;-73
2022/04/29 04:28:33;;;;;;;0.77;0.40;;;11.40;99.90;;;;;;4920104;29;20401;-74
2022/04/29 04:30:58;;;;;;;1.83;0.55;;;11.40;99.90;;;;;;4919631;29;20539;-74
2022/04/29 04:33:24;;;;;;;0.32;0.22;;;11.30;99.90;;;;;;4919967;29;20546;-74
2022/04/29 04:35:50;;;;;;;5.95;1.23;;;11.30;99.90;;;;;;4919760;29;20033;-74
2022/04/29 04:38:16;;;;;;;0.95;0.80;;;11.30;99.90;;;;;;4929944;29;20023;-74
2022/04/29 04:40:42;;;;;;;1.02;0.28;;;11.20;99.90;;;;;;4938745;29;20508;-74
2022/04/29 04:43:08;;;;;;;0.20;0.20;;;11.20;99.90;;;;;;4937563;29;20036;-74
2022/04/29 04:45:34;;;;;;;3.10;0.57;;;11.10;99.90;;;;;;4938918;29;20499;-74
2022/04/29 04:47:59;;;;;;;1.85;0.32;;;11.10;99.90;;;;;;4921483;29;20032;-74
2022/04/29 04:50:25;;;;;;;0.50;0.50;;;11.10;99.90;;;;;;4939162;29;20027;-73
2022/04/29 04:52:51;;;;;;;0.68;0.55;;;11.10;99.90;;;;;;4926241;29;20372;-74
2022/04/29 04:55:17;;;;;;;0.47;0.47;;;11.10;99.90;;;;;;4905143;29;20043;-74
2022/04/29 04:57:42;;;;;;;1.08;0.45;;;11.10;99.90;;;;;;4900492;29;20032;-74
2022/04/29 05:00:09;;;;;;;0.35;0.35;;;11.00;99.90;;;;;;4900594;29;20059;-73
2022/04/29 05:02:38;;;;;;;2.13;1.15;;;11.00;99.90;;;;;;4900563;29;20024;-74
2022/04/29 05:05:03;;;;;;;1.95;0.28;;;11.00;99.90;;;;;;4899739;29;20385;-74
2022/04/29 05:07:29;;;;;;;0.50;0.30;;;10.90;99.90;;;;;;4900339;29;20032;-74
2022/04/29 05:09:55;;;;;;;0.17;0.17;;;10.90;99.90;;;;;;4898987;29;20056;-74
2022/04/29 05:12:21;;;;;;;0.28;0.20;;;10.90;99.90;;;;;;4900110;29;20511;-74
2022/04/29 05:14:46;;;;;;;0.20;0.20;;;10.80;99.90;;;;;;4900101;29;20040;-74
2022/04/29 05:17:12;;;;;;;0.20;0.10;;;10.80;99.90;;;;;;4911300;29;20108;-74
2022/04/29 05:19:38;;;;;;;0.20;0.20;;;10.80;99.90;;;;;;4918486;29;20048;-73
2022/04/29 05:22:04;;;;;;;0.03;0.03;;;10.80;99.90;;;;;;4917682;29;20039;-74
2022/04/29 05:24:30;;;;;;;0.20;0.20;;;10.80;99.90;;;;;;4918729;29;20029;-74
2022/04/29 05:26:56;;;;;;;1.88;1.70;;;10.80;99.90;;;;;;4918705;29;20056;-74
2022/04/29 05:29:21;;;;;;;1.60;0.35;;;10.80;99.90;;;;;;4918136;29;20091;-74
2022/04/29 05:31:47;;;;;;;0.75;0.20;;;10.80;99.90;;;;;;4918799;29;20157;-74
2022/04/29 05:34:13;;;;;;;0.17;0.13;;;10.90;99.90;;;;;;4918405;29;20156;-74
2022/04/29 05:36:39;;;;;;;0.15;0.15;;;10.90;99.90;;;;;;4918547;29;20024;-74
2022/04/29 05:44:34;;;;;;;0.40;0.40;;;11.00;99.90;;;;;;4937768;29;20098;-74
2022/04/29 05:47:00;;;;;;;0.38;0.38;;;10.90;99.90;;;;;;4937383;29;20032;-74
2022/04/29 05:49:26;;;;;;;0.57;0.55;;;11.00;99.90;;;;;;4918034;29;20090;-74
2022/04/29 05:51:51;;;;;;;0.00;0.00;;;11.10;99.90;;;;;;4936988;29;20028;-74
2022/04/29 05:54:17;;;;;;;1.52;1.42;;;11.20;99.90;;;;;;4924375;29;20044;-74
2022/04/29 05:56:42;;;;;;;0.80;0.80;;;11.40;99.90;;;;;;4913023;29;20167;-74
2022/04/29 05:59:08;;;;;;;0.60;0.60;;;11.50;99.90;;;;;;4917783;29;20119;-74
2022/04/29 06:01:34;;;;;;;1.48;0.88;;;11.60;99.90;;;;;;4921771;29;20423;-74
2022/04/29 06:03:59;;;;;;;1.95;1.05;;;11.70;99.90;;;;;;4935208;29;20063;-74
2022/04/29 06:06:25;;;;;;;4.63;2.47;;;11.80;99.90;;;;;;4936677;29;20034;-74
2022/04/29 06:08:51;;;;;;;2.10;0.50;;;11.80;99.90;;;;;;4936445;29;20039;-74
2022/04/29 06:11:17;;;;;;;2.63;0.77;;;11.90;99.90;;;;;;4936747;29;20075;-74
2022/04/29 06:13:43;;;;;;;1.98;1.05;;;11.90;99.90;;;;;;4922171;29;20133;-74
2022/04/29 06:16:10;;;;;;;0.98;0.98;;;11.90;99.90;;;;;;4931250;29;20032;-74
2022/04/29 06:18:36;;;;;;;1.02;0.85;;;12.10;99.90;;;;;;4915226;29;20028;-74
2022/04/29 06:21:02;;;;;;;5.05;0.63;;;12.10;99.90;;;;;;4914223;29;20143;-74
2022/04/29 06:23:28;;;;;;;1.50;1.40;;;12.10;99.90;;;;;;4929511;29;20047;-75
2022/04/29 06:25:54;;;;;;;7.97;2.08;;;12.20;99.90;;;;;;4933673;29;20055;-74
2022/04/29 06:28:19;;;;;;;5.78;1.35;;;12.20;99.90;;;;;;4933884;29;20034;-74
2022/04/29 06:30:45;;;;;;;0.30;0.25;;;12.30;99.90;;;;;;4933021;29;20472;-74
2022/04/29 06:33:11;;;;;;;5.05;0.75;;;12.40;99.90;;;;;;4933717;29;20066;-74
2022/04/29 06:35:42;;;;;;;1.75;0.55;;;12.40;99.90;;;;;;4934448;29;20127;-74
2022/04/29 06:38:10;;;;;;;1.25;1.23;;;12.50;99.90;;;;;;4934122;29;20403;-74
2022/04/29 06:40:36;;;;;;;2.08;1.20;;;12.60;99.90;;;;;;4932476;29;20491;-74
2022/04/29 06:43:02;;;;;;;0.40;0.40;;;12.60;99.90;;;;;;4933959;29;20062;-74
2022/04/29 06:45:28;;;;;;;1.35;1.00;;;12.70;99.90;;;;;;4934211;29;20038;-74
2022/04/29 06:47:53;;;;;;;1.83;1.17;;;12.80;99.90;;;;;;4924658;29;20400;-74
2022/04/29 06:50:19;;;;;;;2.05;1.50;;;12.80;99.90;;;;;;4919580;29;20050;-74
2022/04/29 06:52:45;;;;;;;2.47;1.45;;;13.10;99.90;;;;;;4934156;29;20383;-74
2022/04/29 06:55:10;;;;;;;1.35;1.17;;;13.20;99.90;;;;;;4908625;29;20067;-75
2022/04/29 06:57:36;;;;;;;1.67;0.85;;;13.30;99.90;;;;;;4896410;29;20033;-77
2022/04/29 07:00:06;;;;;;;1.70;1.60;;;13.30;99.90;;;;;;4896877;29;20516;-76
2022/04/29 07:02:32;;;;;;;1.08;0.80;;;13.50;99.90;;;;;;4914593;29;20138;-76
2022/04/29 07:04:59;;;;;;;1.08;0.73;;;13.70;99.90;;;;;;4914305;29;20519;-74
2022/04/29 07:07:28;;;;;;;1.15;0.88;;;13.80;99.90;;;;;;4914543;29;20048;-74
2022/04/29 07:09:54;;;;;;;1.55;1.45;;;13.90;99.90;;;;;;4914828;29;20099;-75
2022/04/29 07:12:20;;;;;;;9.15;1.10;;;14.00;99.90;;;;;;4913679;29;20024;-75
2022/04/29 07:14:46;;;;;;;1.65;1.33;;;14.30;99.90;;;;;;4896412;29;20025;-77
2022/04/29 07:17:11;;;;;;;5.32;1.73;;;14.40;99.90;;;;;;4931082;29;20059;-74
2022/04/29 07:19:37;;;;;;;1.48;1.10;;;14.60;99.90;;;;;;4928058;29;20032;-75
2022/04/29 07:22:06;;;;;;;5.78;1.35;;;14.80;99.90;;;;;;4895690;29;20032;-75
2022/04/29 07:24:32;;;;;;;2.70;1.38;;;14.90;99.90;;;;;;4914903;29;20086;-75
2022/04/29 07:26:58;;;;;;;17.73;1.70;;;15.00;99.90;;;;;;4932410;29;20065;-75
2022/04/29 07:29:24;;;;;;;2.67;1.90;;;15.10;99.90;;;;;;4932550;29;20069;-75
2022/04/29 07:31:49;;;;;;;10.35;3.17;;;15.30;99.90;;;;;;4933031;29;20032;-75
2022/04/29 07:34:15;;;;;;;6.65;2.90;;;15.50;99.90;;;;;;4933818;29;20082;-75
2022/04/29 07:42:09;;;;;;;1.35;1.25;;;15.90;99.90;;;;;;4933105;29;20034;-75
2022/04/29 07:44:35;;;;;;;3.67;1.95;;;16.10;99.90;;;;;;4931555;29;20035;-75
2022/04/29 07:47:00;;;;;;;4.95;2.22;;;16.10;99.90;;;;;;4932708;29;20032;-75
2022/04/29 07:49:26;;;;;;;4.63;1.73;;;16.30;99.90;;;;;;4898293;29;20033;-75
2022/04/29 07:51:52;;;;;;;1.70;1.00;;;16.40;99.90;;;;;;4908575;29;20402;-75
2022/04/29 07:54:18;;;;;;;3.60;2.35;;;17.10;99.90;;;;;;4920611;29;20191;-76
2022/04/29 07:56:43;;;;;;;1.90;1.65;;;18.10;99.90;;;;;;4893597;29;20055;-75
2022/04/29 07:59:09;;;;;;;3.72;1.88;;;18.80;99.90;;;;;;4895338;29;20111;-75
2022/04/29 08:01:38;;;;;;;1.63;0.88;;;19.90;99.90;;;;;;4894715;29;20025;-76
2022/04/29 08:04:04;;;;;;;3.47;2.25;;;20.60;99.90;;;;;;4901964;29;20067;-75
2022/04/29 08:06:30;;;;;;;4.43;2.70;;;21.30;99.90;;;;;;4910271;29;20028;-76
2022/04/29 08:08:56;;;;;;;5.65;2.67;;;21.80;99.90;;;;;;4912197;29;20040;-76
2022/04/29 08:11:22;;;;;;;2.85;1.70;;;21.80;99.90;;;;;;4906957;29;20495;-76
2022/04/29 08:13:48;;;;;;;7.82;2.88;;;21.80;99.90;;;;;;4907904;29;20421;-76
2022/04/29 08:16:15;;;;;;;21.95;9.25;;;21.60;99.90;;;;;;4907637;29;20028;-77
2022/04/29 08:18:41;;;;;;;193.48;165.07;;;21.40;99.90;;;;;;4912097;29;20124;-76
2022/04/29 08:21:08;;;;;;;450.70;28.48;;;21.20;99.90;;;;;;4892190;29;20100;-76
2022/04/29 08:23:34;;;;;;;12.55;11.32;;;21.70;99.90;;;;;;4895662;29;20037;-77
2022/04/29 08:26:00;;;;;;;36.20;32.58;;;22.40;99.90;;;;;;4895070;29;20080;-76
2022/04/29 08:28:28;;;;;;;8.40;8.00;;;22.90;99.90;;;;;;4895118;29;20519;-77
2022/04/29 08:30:54;;;;;;;771.28;307.05;;;23.20;99.90;;;;;;4893719;29;20392;-77
2022/04/29 08:33:21;;;;;;;11.57;7.60;;;23.60;99.90;;;;;;4894513;29;20503;-77
2022/04/29 08:35:47;;;;;;;21.55;7.88;;;23.90;99.90;;;;;;4892626;29;20035;-76
2022/04/29 08:40:48;;;;;;;113.75;15.98;;;24.10;99.90;;;;;;5446662;23;20064;-75
2022/04/29 08:43:15;;;;;;;393.42;151.63;;;23.40;99.90;;;;;;4884974;29;20108;-74
2022/04/29 08:45:44;;;;;;;302.58;187.70;;;23.30;99.90;;;;;;4916438;29;20028;-76
2022/04/29 08:48:10;;;;;;;20.33;10.25;;;23.10;99.90;;;;;;4903090;29;20025;-75
2022/04/29 08:50:36;;;;;;;11.20;7.68;;;23.20;99.90;;;;;;4890081;29;20032;-75
2022/04/29 08:53:02;;;;;;;1334.65;534.05;;;23.90;99.90;;;;;;4887533;29;20093;-75
2022/04/29 09:01:16;;;;;;;114.60;105.70;;;25.10;98.80;;;;;;4900384;29;20099;-75
2022/04/29 09:03:45;;;;;;;604.78;351.83;;;25.60;98.60;;;;;;4908216;29;20032;-75
2022/04/29 09:06:12;;;;;;;748.30;389.73;;;25.40;98.50;;;;;;4916490;29;20058;-75
2022/04/29 09:08:45;;;;;;;1999.90;999.90;;;24.90;98.60;;;;;;4916766;29;20036;-75
2022/04/29 09:11:19;;;;;;;1516.18;763.22;;;25.10;98.70;;;;;;4914927;29;20024;-75
2022/04/29 09:13:45;;;;;;;1999.90;999.90;;;25.00;98.50;;;;;;4906197;29;20097;-75
2022/04/29 09:16:12;;;;;;;1999.90;999.90;;;25.20;98.40;;;;;;4891726;29;20025;-75
2022/04/29 09:18:49;;;;;;;1999.90;999.90;;;24.80;98.20;;;;;;4909855;29;20024;-75
2022/04/29 09:21:25;;;;;;;1999.90;999.90;;;24.30;99.20;;;;;;4880420;29;20037;-75
2022/04/29 09:23:56;;;;;;;1999.90;999.90;;;24.60;99.10;;;;;;4877718;29;20112;-75
2022/04/29 09:26:27;;;;;;;1999.90;999.90;;;24.40;99.00;;;;;;4915953;29;20097;-75
2022/04/29 09:28:53;;;;;;;1999.90;999.90;;;24.30;99.50;;;;;;4915592;29;20107;-75
2022/04/29 09:31:19;;;;;;;1999.90;999.90;;;25.20;98.90;;;;;;4915615;29;20028;-75
2022/04/29 09:33:56;;;;;;;1999.90;999.90;;;26.00;97.70;;;;;;4915980;29;20056;-75
2022/04/29 09:36:24;;;;;;;1999.90;999.90;;;25.70;97.50;;;;;;4914643;29;20036;-75
2022/04/29 09:41:38;;;;;;;1999.90;999.90;;;25.40;97.70;;;;;;4914768;29;20059;-75
2022/04/29 09:44:05;;;;;;;1999.90;999.90;;;25.40;98.10;;;;;;4898307;29;20045;-75
2022/04/29 09:46:30;;;;;;;1999.90;999.90;;;25.70;97.60;;;;;;4896723;29;20029;-75
2022/04/29 09:49:06;;;;;;;1999.90;999.90;;;26.20;97.80;;;;;;4888883;29;20036;-75
2022/04/29 09:51:46;;;;;;;1999.90;999.90;;;26.60;96.60;;;;;;4901864;29;20020;-75
2022/04/29 09:54:24;;;;;;;1999.90;999.90;;;27.50;95.90;;;;;;4905749;29;20543;-75
2022/04/29 09:57:06;;;;;;;1999.90;999.90;;;28.00;95.00;;;;;;4888414;29;20091;-75
2022/04/29 09:59:34;;;;;;;1999.90;999.90;;;27.80;95.40;;;;;;4896525;29;20088;-75
2022/04/29 10:02:01;;;;;;;1999.90;999.90;;;27.70;94.80;;;;;;4907767;29;20028;-75
2022/04/29 10:04:34;;;;;;;1999.90;999.90;;;27.90;94.90;;;;;;4915267;29;20029;-75
2022/04/29 10:07:03;;;;;;;1999.90;999.90;;;28.10;94.70;;;;;;4909480;29;20543;-75
2022/04/29 10:09:32;;;;;;;1999.90;999.90;;;27.80;93.90;;;;;;4896435;29;20100;-75
2022/04/29 10:12:00;;;;;;;1999.90;999.90;;;27.70;94.30;;;;;;4897370;29;20158;-75
2022/04/29 10:14:28;;;;;;;1999.90;999.90;;;27.20;94.80;;;;;;4892881;29;20028;-75
2022/04/29 10:22:41;;;;;;;1999.90;999.90;;;26.90;95.60;;;;;;4897142;29;20051;-75
2022/04/29 10:25:11;;;;;;;1999.90;999.90;;;27.40;95.10;;;;;;4896604;29;20561;-75
2022/04/29 10:27:39;;;;;;;1999.90;999.90;;;28.30;94.80;;;;;;4896992;29;20032;-75
2022/04/29 10:30:06;;;;;;;1999.90;999.90;;;28.50;91.70;;;;;;4897011;29;20473;-75
2022/04/29 10:33:02;;;;;;;1999.90;999.90;;;28.90;90.70;;;;;;4897164;29;20120;-75
2022/04/29 10:35:46;;;;;;;1999.90;999.90;;;27.90;90.50;;;;;;4896493;29;20115;-75
2022/04/29 10:38:22;;;;;;;1999.90;999.90;;;26.40;92.10;;;;;;4905307;29;20028;-75
2022/04/29 10:41:25;;;;;;;1999.90;999.90;;;27.00;91.80;;;;;;4915590;29;20055;-75
2022/04/29 10:43:51;;;;;;;1999.90;999.90;;;28.00;90.90;;;;;;4897594;29;20352;-75
2022/04/29 10:46:22;;;;;;;1999.90;999.90;;;28.60;90.80;;;;;;4914978;29;20134;-75
2022/04/29 10:48:54;;;;;;;1999.90;999.90;;;29.40;89.70;;;;;;4891508;29;20126;-75
2022/04/29 10:51:26;;;;;;;1999.90;999.90;;;29.80;87.10;;;;;;4877985;29;20530;-75
2022/04/29 10:53:57;;;;;;;1999.90;999.90;;;29.80;87.50;;;;;;4880586;29;20071;-76
2022/04/29 10:56:32;;;;;;;1999.90;999.90;;;30.20;88.60;;;;;;4876490;29;20438;-76
2022/04/29 10:59:03;;;;;;;1999.90;999.90;;;29.60;87.20;;;;;;4877498;29;20081;-75
2022/04/29 11:01:33;;;;;;;1999.90;999.90;;;29.20;87.30;;;;;;4879829;29;20103;-75
2022/04/29 11:04:05;;;;;;;1999.90;999.90;;;28.30;87.40;;;;;;4891054;29;20131;-76
2022/04/29 11:06:49;;;;;;;1999.90;999.90;;;28.90;87.80;;;;;;4893199;29;20153;-75
2022/04/29 11:09:31;;;;;;;1999.90;999.90;;;29.20;89.30;;;;;;4877782;29;20032;-76
2022/04/29 11:11:58;;;;;;;1999.90;999.90;;;28.90;90.00;;;;;;4877741;29;20025;-75
2022/04/29 11:14:24;;;;;;;1999.90;999.90;;;28.40;88.60;;;;;;4875721;29;20123;-75
2022/04/29 11:16:55;;;;;;;1999.90;999.90;;;28.00;90.10;;;;;;4881443;29;20120;-75
2022/04/29 11:19:34;;;;;;;1999.90;999.90;;;27.50;90.10;;;;;;4875000;29;20033;-75
2022/04/29 11:24:51;;;;;;;1999.90;999.90;;;26.60;91.00;;;;;;4874704;29;20036;-75
2022/04/29 11:27:26;;;;;;;1999.90;999.90;;;27.10;91.10;;;;;;4877775;29;20037;-75
2022/04/29 11:29:53;;;;;;;1999.90;999.90;;;27.20;90.70;;;;;;4876226;29;20017;-75
2022/04/29 11:32:23;;;;;;;1999.90;999.90;;;25.90;91.50;;;;;;4876840;29;20077;-75
2022/04/29 11:34:54;;;;;;;1999.90;999.90;;;25.30;93.20;;;;;;4883745;29;20088;-74
2022/04/29 11:37:23;;;;;;;1999.90;999.90;;;24.20;92.80;;;;;;4897018;29;20076;-74
2022/04/29 11:39:50;;;;;;;1999.90;999.90;;;23.90;93.80;;;;;;4894241;29;20028;-74
2022/04/29 11:42:20;;;;;;;1999.90;999.90;;;23.50;93.80;;;;;;4915791;29;20036;-75
2022/04/29 11:44:51;;;;;;;1999.90;999.90;;;24.30;94.40;;;;;;4915449;29;20063;-75
2022/04/29 11:47:23;;;;;;;1999.90;999.90;;;24.80;92.80;;;;;;4915590;29;20032;-75
2022/04/29 11:49:49;;;;;;;1999.90;999.90;;;25.50;93.20;;;;;;4877847;29;20021;-75
2022/04/29 11:52:23;;;;;;;1999.90;999.90;;;25.80;91.80;;;;;;4877987;29;20048;-75
2022/04/29 11:55:03;;;;;;;1999.90;999.90;;;25.60;91.70;;;;;;4893251;29;20116;-75
2022/04/29 11:57:33;;;;;;;1999.90;999.90;;;24.40;92.70;;;;;;4897769;29;20550;-74
2022/04/29 12:00:00;;;;;;;1999.90;999.90;;;24.30;93.80;;;;;;4912839;29;20032;-75
2022/04/29 12:02:29;;;;;;;1999.90;999.90;;;24.80;93.60;;;;;;4913342;29;20028;-75
2022/04/29 12:04:59;;;;;;;1999.90;999.90;;;25.50;92.50;;;;;;4914476;29;20076;-75
2022/04/29 12:07:27;;;;;;;1999.90;999.90;;;25.90;92.10;;;;;;4916771;29;20028;-75
2022/04/29 12:09:53;;;;;;;1999.90;999.90;;;25.20;92.50;;;;;;4914935;29;20024;-75
2022/04/29 12:12:30;;;;;;;1999.90;999.90;;;24.40;93.80;;;;;;4915122;29;20456;-74
2022/04/29 12:14:59;;;;;;;1999.90;999.90;;;24.40;93.40;;;;;;4915080;29;20025;-75
2022/04/29 12:17:35;;;;;;;1999.90;999.90;;;24.70;92.60;;;;;;4904125;29;20405;-74
2022/04/29 12:20:02;;;;;;;1999.90;999.90;;;24.30;93.00;;;;;;4880591;29;20085;-74
2022/04/29 12:22:30;;;;;;;1999.90;999.90;;;24.50;92.60;;;;;;4882037;29;20041;-74
2022/04/29 12:24:57;;;;;;;1999.90;999.90;;;24.60;92.50;;;;;;4896801;29;20039;-74
2022/04/29 12:27:30;;;;;;;1999.90;999.90;;;24.50;91.90;;;;;;4901126;29;20032;-74
2022/04/29 12:35:30;;;;;;;1999.90;999.90;;;23.30;94.00;;;;;;4880961;29;20032;-74
2022/04/29 12:37:56;;;;;;;1999.90;999.90;;;23.60;94.90;;;;;;4895612;29;20032;-74
2022/04/29 12:40:29;;;;;;;1999.90;999.90;;;24.20;93.70;;;;;;4887543;29;20056;-73
2022/04/29 12:43:14;;;;;;;1999.90;999.90;;;24.80;92.90;;;;;;4890082;29;20021;-75
2022/04/29 12:45:40;;;;;;;1999.90;999.90;;;24.90;92.30;;;;;;4882683;29;20032;-74
2022/04/29 12:48:08;;;;;;;1999.90;999.90;;;25.00;92.90;;;;;;4904248;29;20339;-74
2022/04/29 12:50:42;;;;;;;1999.90;999.90;;;24.60;95.30;;;;;;4879349;29;20566;-74
2022/04/29 12:53:13;;;;;;;1999.90;999.90;;;24.70;95.10;;;;;;4880958;29;20071;-75
2022/04/29 12:55:51;;;;;;;1999.90;999.90;;;24.30;95.00;;;;;;4880523;29;20041;-74
2022/04/29 12:58:21;;;;;;;1999.90;999.90;;;24.10;95.50;;;;;;4880799;29;20441;-74
2022/04/29 13:01:07;;;;;;;1999.90;999.90;;;23.50;95.10;;;;;;4880702;29;20041;-73
2022/04/29 13:03:34;;;;;;;1999.90;999.90;;;23.50;95.70;;;;;;4879759;29;20028;-73
2022/04/29 13:06:01;;;;;;;1999.90;999.90;;;23.10;96.10;;;;;;4880021;29;20049;-73
2022/04/29 13:08:27;;;;;;;1999.90;999.90;;;22.70;97.20;;;;;;4879918;29;20041;-74
2022/04/29 13:10:57;;;;;;;1999.90;999.90;;;22.30;97.80;;;;;;4878432;29;20412;-73
2022/04/29 13:13:26;;;;;;;1999.90;999.90;;;22.40;97.50;;;;;;4879190;29;20037;-73
2022/04/29 13:15:54;;;;;;;1999.90;999.90;;;22.30;97.60;;;;;;4879805;29;20028;-73
2022/04/29 13:18:20;;;;;;;1999.90;999.90;;;22.10;97.80;;;;;;4879407;29;20036;-73